createdAt,value
2019-04-21T00:00:38.336Z,1018.9
2019-04-21T00:01:52.569Z,1018.9
2019-04-21T00:03:06.772Z,1018.9
2019-04-21T00:04:20.972Z,1018.8
2019-04-21T00:05:35.197Z,1018.9
2019-04-21T00:06:49.365Z,1018.9
2019-04-21T00:08:03.460Z,1018.9
2019-04-21T00:09:17.638Z,1018.8
2019-04-21T00:10:31.914Z,1018.8
2019-04-21T00:11:46.081Z,1018.8
2019-04-21T00:13:00.236Z,1018.8
2019-04-21T00:14:15.894Z,1018.8
2019-04-21T00:15:28.603Z,1018.7
2019-04-21T00:16:42.794Z,1018.7
2019-04-21T00:17:57.157Z,1018.7
2019-04-21T00:19:11.200Z,1018.7
2019-04-21T00:20:25.480Z,1018.7
2019-04-21T00:21:39.666Z,1018.7
2019-04-21T00:22:54.020Z,1018.7
2019-04-21T00:24:07.993Z,1018.7
2019-04-21T00:25:22.322Z,1018.7
2019-04-21T00:26:36.452Z,1018.7
2019-04-21T00:27:50.710Z,1018.7
2019-04-21T00:29:04.971Z,1018.6
2019-04-21T00:30:19.039Z,1018.6
2019-04-21T00:31:33.160Z,1018.6
2019-04-21T00:32:47.338Z,1018.6
2019-04-21T00:34:01.577Z,1018.6
2019-04-21T00:35:15.715Z,1018.6
2019-04-21T00:36:29.933Z,1018.6
2019-04-21T00:37:44.125Z,1018.6
2019-04-21T00:38:58.387Z,1018.6
2019-04-21T00:40:12.948Z,1018.6
2019-04-21T00:41:26.687Z,1018.6
2019-04-21T00:42:40.912Z,1018.5
2019-04-21T00:43:55.080Z,1018.6
2019-04-21T00:45:09.318Z,1018.5
2019-04-21T00:46:23.497Z,1018.5
2019-04-21T00:47:37.684Z,1018.5
2019-04-21T00:48:51.969Z,1018.5
2019-04-21T00:50:06.162Z,1018.4
2019-04-21T00:51:20.346Z,1018.4
2019-04-21T00:52:34.449Z,1018.4
2019-04-21T00:53:48.757Z,1018.4
2019-04-21T00:55:02.851Z,1018.3
2019-04-21T00:57:31.245Z,1018.3
2019-04-21T00:58:45.442Z,1018.3
2019-04-21T00:59:59.660Z,1018.3
2019-04-21T01:01:13.842Z,1018.3
2019-04-21T01:02:28.049Z,1018.2
2019-04-21T01:03:42.267Z,1018.2
2019-04-21T01:04:56.415Z,1018.2
2019-04-21T01:06:10.733Z,1018.1
2019-04-21T01:07:25.028Z,1018.2
2019-04-21T01:08:38.988Z,1018.2
2019-04-21T01:09:53.184Z,1018.2
2019-04-21T01:11:07.388Z,1018.2
2019-04-21T01:12:21.613Z,1018.1
2019-04-21T01:13:35.866Z,1018.1
2019-04-21T01:14:49.943Z,1018.2
2019-04-21T01:16:04.157Z,1018.2
2019-04-21T01:17:18.397Z,1018.2
2019-04-21T01:18:32.530Z,1018.1
2019-04-21T01:19:46.731Z,1018.2
2019-04-21T01:21:00.934Z,1018.1
2019-04-21T01:22:15.098Z,1018.1
2019-04-21T01:23:29.317Z,1018.1
2019-04-21T01:24:43.497Z,1018.1
2019-04-21T01:25:57.771Z,1018.1
2019-04-21T01:27:11.898Z,1018.1
2019-04-21T01:28:26.047Z,1018.1
2019-04-21T01:29:40.236Z,1018.1
2019-04-21T01:30:54.461Z,1018.1
2019-04-21T01:32:08.654Z,1018.1
2019-04-21T01:33:22.886Z,1018.1
2019-04-21T01:34:36.997Z,1018.1
2019-04-21T01:35:51.172Z,1018
2019-04-21T01:37:05.570Z,1018
2019-04-21T01:38:19.702Z,1018
2019-04-21T01:39:33.779Z,1017.9
2019-04-21T01:40:47.924Z,1018
2019-04-21T01:42:02.142Z,1017.9
2019-04-21T01:43:16.329Z,1018
2019-04-21T01:44:30.571Z,1017.9
2019-04-21T01:45:44.676Z,1017.9
2019-04-21T01:46:58.946Z,1018
2019-04-21T01:48:13.137Z,1017.9
2019-04-21T01:49:27.231Z,1017.9
2019-04-21T01:50:41.468Z,1017.9
2019-04-21T01:51:55.639Z,1017.9
2019-04-21T01:53:09.882Z,1017.9
2019-04-21T01:54:24.019Z,1017.9
2019-04-21T01:55:38.204Z,1017.8
2019-04-21T01:56:52.463Z,1017.8
2019-04-21T01:58:06.688Z,1017.8
2019-04-21T01:59:20.764Z,1017.7
2019-04-21T02:00:35.028Z,1017.8
2019-04-21T02:01:49.185Z,1017.8
2019-04-21T02:03:03.514Z,1017.9
2019-04-21T02:04:17.563Z,1017.8
2019-04-21T02:05:31.742Z,1017.8
2019-04-21T02:06:45.911Z,1017.7
2019-04-21T02:08:00.315Z,1017.7
2019-04-21T02:09:14.317Z,1017.7
2019-04-21T02:10:28.556Z,1017.8
2019-04-21T02:11:42.653Z,1017.7
2019-04-21T02:12:56.857Z,1017.8
2019-04-21T02:14:11.197Z,1017.8
2019-04-21T02:15:25.269Z,1017.8
2019-04-21T02:16:39.499Z,1017.7
2019-04-21T02:17:53.629Z,1017.8
2019-04-21T02:19:07.815Z,1017.7
2019-04-21T02:20:21.993Z,1017.7
2019-04-21T02:21:36.211Z,1017.7
2019-04-21T02:22:50.489Z,1017.7
2019-04-21T02:24:04.593Z,1017.7
2019-04-21T02:25:18.852Z,1017.6
2019-04-21T02:26:38.368Z,1017.6
2019-04-21T02:27:47.140Z,1017.6
2019-04-21T02:29:01.328Z,1017.7
2019-04-21T02:30:15.530Z,1017.6
2019-04-21T02:31:29.713Z,1017.6
2019-04-21T02:32:43.938Z,1017.6
2019-04-21T02:33:58.180Z,1017.6
2019-04-21T02:35:12.304Z,1017.6
2019-04-21T02:36:26.462Z,1017.5
2019-04-21T02:37:40.664Z,1017.6
2019-04-21T02:38:54.876Z,1017.5
2019-04-21T02:40:09.058Z,1017.6
2019-04-21T02:41:23.231Z,1017.5
2019-04-21T02:42:37.479Z,1017.4
2019-04-21T02:43:51.704Z,1017.5
2019-04-21T02:45:05.885Z,1017.4
2019-04-21T02:46:20.004Z,1017.4
2019-04-21T02:47:34.254Z,1017.4
2019-04-21T02:48:48.453Z,1017.4
2019-04-21T02:50:02.613Z,1017.4
2019-04-21T02:51:16.931Z,1017.4
2019-04-21T02:52:30.967Z,1017.3
2019-04-21T02:53:45.294Z,1017.3
2019-04-21T02:54:59.378Z,1017.3
2019-04-21T02:56:13.687Z,1017.3
2019-04-21T02:57:27.900Z,1017.3
2019-04-21T02:58:42.025Z,1017.3
2019-04-21T02:59:56.159Z,1017.3
2019-04-21T03:01:10.389Z,1017.3
2019-04-21T03:02:24.559Z,1017.2
2019-04-21T03:03:38.779Z,1017.2
2019-04-21T03:04:52.952Z,1017.2
2019-04-21T03:06:07.133Z,1017.2
2019-04-21T03:07:21.448Z,1017.2
2019-04-21T03:08:35.627Z,1017.2
2019-04-21T03:09:49.757Z,1017.1
2019-04-21T03:11:03.940Z,1017.2
2019-04-21T03:12:18.237Z,1017.2
2019-04-21T03:13:32.349Z,1017.2
2019-04-21T03:14:46.624Z,1017.2
2019-04-21T03:16:00.725Z,1017.2
2019-04-21T03:17:14.934Z,1017.1
2019-04-21T03:18:29.134Z,1017.1
2019-04-21T03:19:43.339Z,1017.1
2019-04-21T03:20:57.511Z,1017.1
2019-04-21T03:22:15.130Z,1017.1
2019-04-21T03:23:25.909Z,1017
2019-04-21T03:24:40.098Z,1017.1
2019-04-21T03:25:57.972Z,1017.1
2019-04-21T03:27:08.487Z,1017
2019-04-21T03:28:22.724Z,1017
2019-04-21T03:29:36.941Z,1017
2019-04-21T03:30:51.084Z,1017
2019-04-21T03:32:05.345Z,1017
2019-04-21T03:33:19.481Z,1016.9
2019-04-21T03:34:33.674Z,1016.9
2019-04-21T03:35:47.888Z,1016.9
2019-04-21T03:37:02.064Z,1016.8
2019-04-21T03:38:16.243Z,1016.9
2019-04-21T03:39:30.529Z,1016.9
2019-04-21T03:40:44.680Z,1016.9
2019-04-21T03:41:58.878Z,1016.9
2019-04-21T03:43:17.415Z,1016.9
2019-04-21T03:44:27.269Z,1016.9
2019-04-21T03:45:41.681Z,1016.9
2019-04-21T03:46:55.644Z,1016.9
2019-04-21T03:48:09.889Z,1016.9
2019-04-21T03:49:24.051Z,1016.9
2019-04-21T03:50:38.237Z,1016.9
2019-04-21T03:51:52.593Z,1016.9
2019-04-21T03:53:06.654Z,1016.9
2019-04-21T03:54:20.867Z,1016.8
2019-04-21T03:55:35.061Z,1016.8
2019-04-21T03:56:49.230Z,1016.8
2019-04-21T03:58:03.448Z,1016.8
2019-04-21T03:59:17.664Z,1016.8
2019-04-21T04:00:31.868Z,1016.8
2019-04-21T04:01:46.027Z,1016.8
2019-04-21T04:03:00.306Z,1016.7
2019-04-21T04:04:15.897Z,1016.8
2019-04-21T04:05:28.700Z,1016.8
2019-04-21T04:06:42.945Z,1016.9
2019-04-21T04:07:57.016Z,1016.9
2019-04-21T04:09:11.239Z,1016.9
2019-04-21T04:10:25.409Z,1016.8
2019-04-21T04:11:39.675Z,1016.9
2019-04-21T04:12:53.813Z,1016.9
2019-04-21T04:14:08.027Z,1016.9
2019-04-21T04:15:22.219Z,1016.9
2019-04-21T04:17:50.705Z,1016.9
2019-04-21T04:19:04.821Z,1016.8
2019-04-21T04:20:19.026Z,1016.8
2019-04-21T04:21:33.241Z,1016.9
2019-04-21T04:22:47.523Z,1016.8
2019-04-21T04:24:01.663Z,1016.8
2019-04-21T04:25:15.986Z,1016.9
2019-04-21T04:26:30.053Z,1016.9
2019-04-21T04:27:44.248Z,1016.8
2019-04-21T04:28:58.477Z,1016.8
2019-04-21T04:30:12.778Z,1016.9
2019-04-21T04:31:27.058Z,1016.9
2019-04-21T04:32:41.200Z,1016.8
2019-04-21T04:33:55.283Z,1016.8
2019-04-21T04:35:09.496Z,1016.8
2019-04-21T04:36:23.748Z,1016.7
2019-04-21T04:37:37.905Z,1016.8
2019-04-21T04:38:52.124Z,1016.8
2019-04-21T04:40:06.342Z,1016.7
2019-04-21T04:41:20.523Z,1016.8
2019-04-21T04:42:34.761Z,1016.8
2019-04-21T04:43:49.033Z,1016.8
2019-04-21T04:45:03.136Z,1016.8
2019-04-21T04:46:17.433Z,1016.8
2019-04-21T04:47:34.766Z,1016.8
2019-04-21T04:48:45.747Z,1016.8
2019-04-21T04:50:00.009Z,1016.7
2019-04-21T04:51:14.130Z,1016.8
2019-04-21T04:52:28.331Z,1016.7
2019-04-21T04:53:42.509Z,1016.7
2019-04-21T04:54:56.845Z,1016.8
2019-04-21T04:56:12.371Z,1016.7
2019-04-21T04:57:25.158Z,1016.7
2019-04-21T04:58:39.348Z,1016.7
2019-04-21T04:59:53.522Z,1016.7
2019-04-21T05:01:07.713Z,1016.8
2019-04-21T05:02:21.941Z,1016.8
2019-04-21T05:03:36.103Z,1016.7
2019-04-21T05:04:50.345Z,1016.7
2019-04-21T05:06:04.501Z,1016.7
2019-04-21T05:07:18.727Z,1016.7
2019-04-21T05:08:32.975Z,1016.7
2019-04-21T05:09:47.077Z,1016.6
2019-04-21T05:11:01.260Z,1016.6
2019-04-21T05:12:15.445Z,1016.6
2019-04-21T05:13:29.652Z,1016.6
2019-04-21T05:14:43.972Z,1016.6
2019-04-21T05:15:58.053Z,1016.6
2019-04-21T05:17:12.351Z,1016.6
2019-04-21T05:18:26.398Z,1016.5
2019-04-21T05:19:40.569Z,1016.5
2019-04-21T05:22:08.932Z,1016.6
2019-04-21T05:23:23.121Z,1016.5
2019-04-21T05:24:37.303Z,1016.4
2019-04-21T05:25:51.589Z,1016.4
2019-04-21T05:27:05.664Z,1016.4
2019-04-21T05:28:19.848Z,1016.4
2019-04-21T05:29:34.001Z,1016.4
2019-04-21T05:30:48.144Z,1016.4
2019-04-21T05:32:02.416Z,1016.4
2019-04-21T05:33:16.471Z,1016.4
2019-04-21T05:34:30.732Z,1016.3
2019-04-21T05:35:44.818Z,1016.3
2019-04-21T05:36:58.966Z,1016.4
2019-04-21T05:38:14.216Z,1016.4
2019-04-21T05:39:27.271Z,1016.5
2019-04-21T05:40:41.464Z,1016.4
2019-04-21T05:41:55.586Z,1016.4
2019-04-21T05:43:09.745Z,1016.3
2019-04-21T05:44:24.960Z,1016.4
2019-04-21T05:45:38.062Z,1016.4
2019-04-21T05:46:52.264Z,1016.4
2019-04-21T05:48:06.458Z,1016.4
2019-04-21T05:49:20.676Z,1016.4
2019-04-21T05:50:39.716Z,1016.4
2019-04-21T05:51:49.014Z,1016.4
2019-04-21T05:53:03.094Z,1016.4
2019-04-21T05:54:17.137Z,1016.3
2019-04-21T05:55:31.330Z,1016.4
2019-04-21T05:56:45.484Z,1016.4
2019-04-21T05:57:59.590Z,1016.4
2019-04-21T05:59:13.848Z,1016.4
2019-04-21T06:00:27.882Z,1016.4
2019-04-21T06:01:42.038Z,1016.3
2019-04-21T06:02:56.214Z,1016.4
2019-04-21T06:04:10.371Z,1016.3
2019-04-21T06:05:24.441Z,1016.3
2019-04-21T06:06:38.659Z,1016.2
2019-04-21T06:07:52.755Z,1016.2
2019-04-21T06:09:06.848Z,1016.3
2019-04-21T06:10:21.056Z,1016.2
2019-04-21T06:11:35.251Z,1016.2
2019-04-21T06:12:49.232Z,1016.2
2019-04-21T06:14:03.460Z,1016.2
2019-04-21T06:15:17.512Z,1016.1
2019-04-21T06:16:31.634Z,1016.1
2019-04-21T06:17:45.757Z,1016.1
2019-04-21T06:18:59.954Z,1016.1
2019-04-21T06:20:14.075Z,1016.1
2019-04-21T06:21:28.138Z,1016.1
2019-04-21T06:22:42.490Z,1016
2019-04-21T06:23:56.423Z,1016.1
2019-04-21T06:25:10.575Z,1016.1
2019-04-21T06:26:24.658Z,1016.1
2019-04-21T06:27:38.892Z,1016
2019-04-21T06:28:52.905Z,1016
2019-04-21T06:30:07.133Z,1016
2019-04-21T06:31:21.233Z,1016.1
2019-04-21T06:32:35.381Z,1016
2019-04-21T06:33:49.604Z,1016.1
2019-04-21T06:35:03.725Z,1016
2019-04-21T06:36:17.696Z,1016.1
2019-04-21T06:37:31.839Z,1016
2019-04-21T06:38:45.981Z,1016
2019-04-21T06:40:00.067Z,1016.1
2019-04-21T06:41:14.194Z,1016
2019-04-21T06:42:28.308Z,1016.1
2019-04-21T06:43:42.417Z,1016.1
2019-04-21T06:44:56.537Z,1016
2019-04-21T06:46:11.392Z,1016.1
2019-04-21T06:47:24.811Z,1016
2019-04-21T06:48:38.881Z,1016
2019-04-21T06:49:53.180Z,1016
2019-04-21T06:51:07.127Z,1016
2019-04-21T06:52:21.195Z,1016
2019-04-21T06:53:35.377Z,1015.9
2019-04-21T06:54:49.545Z,1015.9
2019-04-21T06:56:03.502Z,1016
2019-04-21T06:57:17.618Z,1015.9
2019-04-21T06:58:31.825Z,1016
2019-04-21T06:59:45.850Z,1015.9
2019-04-21T07:00:59.998Z,1015.9
2019-04-21T07:02:14.049Z,1015.9
2019-04-21T07:03:28.151Z,1015.9
2019-04-21T07:04:42.218Z,1015.9
2019-04-21T07:05:56.396Z,1016
2019-04-21T07:07:10.428Z,1015.9
2019-04-21T07:08:24.489Z,1016
2019-04-21T07:09:38.655Z,1016
2019-04-21T07:10:52.684Z,1016
2019-04-21T07:12:06.771Z,1015.9
2019-04-21T07:13:20.898Z,1015.9
2019-04-21T07:14:34.959Z,1016
2019-04-21T07:15:49.156Z,1015.9
2019-04-21T07:17:03.168Z,1015.9
2019-04-21T07:18:17.237Z,1015.9
2019-04-21T07:19:31.329Z,1015.9
2019-04-21T07:20:45.447Z,1015.9
2019-04-21T07:21:59.549Z,1015.9
2019-04-21T07:23:13.775Z,1015.9
2019-04-21T07:24:27.665Z,1015.9
2019-04-21T07:25:41.790Z,1015.9
2019-04-21T07:26:55.906Z,1015.9
2019-04-21T07:28:09.929Z,1015.9
2019-04-21T07:29:24.027Z,1015.9
2019-04-21T07:30:38.142Z,1015.9
2019-04-21T07:31:52.195Z,1016
2019-04-21T07:33:06.498Z,1016
2019-04-21T07:34:20.524Z,1016
2019-04-21T07:35:34.468Z,1016
2019-04-21T07:36:50.137Z,1015.9
2019-04-21T07:38:02.620Z,1015.9
2019-04-21T07:39:16.702Z,1015.9
2019-04-21T07:40:30.887Z,1015.9
2019-04-21T07:42:59.061Z,1015.8
2019-04-21T07:44:13.199Z,1015.8
2019-04-21T07:45:27.116Z,1015.8
2019-04-21T07:46:41.400Z,1015.8
2019-04-21T07:47:55.353Z,1015.8
2019-04-21T07:49:09.296Z,1015.8
2019-04-21T07:50:23.387Z,1015.8
2019-04-21T07:51:37.469Z,1015.8
2019-04-21T07:52:51.653Z,1015.9
2019-04-21T07:54:05.762Z,1015.9
2019-04-21T07:55:19.695Z,1015.9
2019-04-21T07:56:33.695Z,1015.9
2019-04-21T07:57:47.718Z,1015.9
2019-04-21T07:59:01.949Z,1015.8
2019-04-21T08:00:15.910Z,1015.8
2019-04-21T08:01:29.895Z,1015.8
2019-04-21T08:02:43.982Z,1015.8
2019-04-21T08:03:58.032Z,1015.8
2019-04-21T08:05:12.109Z,1015.8
2019-04-21T08:06:26.188Z,1015.8
2019-04-21T08:07:40.345Z,1015.8
2019-04-21T08:08:54.303Z,1015.7
2019-04-21T08:10:08.372Z,1015.8
2019-04-21T08:11:22.434Z,1015.8
2019-04-21T08:12:36.657Z,1015.8
2019-04-21T08:13:50.663Z,1015.8
2019-04-21T08:15:04.712Z,1015.7
2019-04-21T08:16:18.651Z,1015.8
2019-04-21T08:17:32.709Z,1015.7
2019-04-21T08:18:46.842Z,1015.7
2019-04-21T08:20:00.831Z,1015.7
2019-04-21T08:21:14.889Z,1015.8
2019-04-21T08:22:28.917Z,1015.7
2019-04-21T08:23:42.986Z,1015.7
2019-04-21T08:24:57.113Z,1015.6
2019-04-21T08:26:11.132Z,1015.7
2019-04-21T08:27:25.187Z,1015.7
2019-04-21T08:28:39.262Z,1015.6
2019-04-21T08:29:53.302Z,1015.6
2019-04-21T08:31:07.484Z,1015.6
2019-04-21T08:32:21.724Z,1015.6
2019-04-21T08:33:35.436Z,1015.6
2019-04-21T08:34:49.463Z,1015.6
2019-04-21T08:36:03.529Z,1015.5
2019-04-21T08:38:31.625Z,1015.5
2019-04-21T08:39:45.638Z,1015.6
2019-04-21T08:40:59.790Z,1015.6
2019-04-21T08:42:13.751Z,1015.5
2019-04-21T08:43:27.839Z,1015.6
2019-04-21T08:44:41.823Z,1015.5
2019-04-21T08:45:55.858Z,1015.6
2019-04-21T08:47:09.943Z,1015.5
2019-04-21T08:48:24.023Z,1015.6
2019-04-21T08:49:38.004Z,1015.5
2019-04-21T08:50:52.032Z,1015.5
2019-04-21T08:52:06.094Z,1015.5
2019-04-21T08:53:20.178Z,1015.5
2019-04-21T08:54:34.145Z,1015.4
2019-04-21T08:55:48.455Z,1015.5
2019-04-21T08:57:02.279Z,1015.5
2019-04-21T08:58:16.265Z,1015.5
2019-04-21T08:59:30.310Z,1015.5
2019-04-21T09:00:44.398Z,1015.5
2019-04-21T09:01:58.468Z,1015.5
2019-04-21T09:03:12.438Z,1015.4
2019-04-21T09:04:26.502Z,1015.4
2019-04-21T09:05:43.098Z,1015.5
2019-04-21T09:06:54.560Z,1015.4
2019-04-21T09:08:08.589Z,1015.4
2019-04-21T09:09:22.613Z,1015.4
2019-04-21T09:10:36.690Z,1015.4
2019-04-21T09:11:50.947Z,1015.5
2019-04-21T09:13:04.705Z,1015.4
2019-04-21T09:14:18.771Z,1015.4
2019-04-21T09:15:32.748Z,1015.3
2019-04-21T09:16:46.805Z,1015.3
2019-04-21T09:18:00.843Z,1015.3
2019-04-21T09:19:14.826Z,1015.3
2019-04-21T09:20:28.913Z,1015.3
2019-04-21T09:21:42.888Z,1015.2
2019-04-21T09:22:56.913Z,1015.2
2019-04-21T09:24:10.930Z,1015.3
2019-04-21T09:25:25.072Z,1015.2
2019-04-21T09:26:39.238Z,1015.3
2019-04-21T09:27:53.020Z,1015.3
2019-04-21T09:29:07.040Z,1015.3
2019-04-21T09:30:21.075Z,1015.2
2019-04-21T09:31:35.160Z,1015.2
2019-04-21T09:32:49.095Z,1015.1
2019-04-21T09:34:03.148Z,1015.2
2019-04-21T09:35:17.157Z,1015.1
2019-04-21T09:36:31.189Z,1015.1
2019-04-21T09:37:45.212Z,1015.1
2019-04-21T09:38:59.284Z,1015.1
2019-04-21T09:40:13.225Z,1015.1
2019-04-21T09:41:27.261Z,1015.1
2019-04-21T09:42:41.273Z,1015.1
2019-04-21T09:43:55.571Z,1015.1
2019-04-21T09:45:09.301Z,1015.1
2019-04-21T09:46:23.432Z,1015.1
2019-04-21T09:47:37.337Z,1015.1
2019-04-21T09:48:51.432Z,1015.1
2019-04-21T09:50:05.650Z,1015
2019-04-21T09:51:19.448Z,1015
2019-04-21T09:52:34.006Z,1015
2019-04-21T09:53:47.456Z,1015
2019-04-21T09:55:01.476Z,1015
2019-04-21T09:56:15.644Z,1015
2019-04-21T09:57:29.532Z,1014.9
2019-04-21T09:58:43.551Z,1015
2019-04-21T09:59:57.514Z,1015
2019-04-21T10:01:11.520Z,1015
2019-04-21T10:02:25.647Z,1015
2019-04-21T10:03:39.612Z,1015
2019-04-21T10:04:53.624Z,1014.9
2019-04-21T10:06:07.583Z,1014.9
2019-04-21T10:07:21.788Z,1014.8
2019-04-21T10:08:35.628Z,1014.9
2019-04-21T10:09:49.689Z,1014.8
2019-04-21T10:11:03.698Z,1014.8
2019-04-21T10:12:17.654Z,1014.8
2019-04-21T10:13:31.790Z,1014.8
2019-04-21T10:14:45.706Z,1014.8
2019-04-21T10:15:59.922Z,1014.8
2019-04-21T10:17:13.728Z,1014.8
2019-04-21T10:18:27.746Z,1014.8
2019-04-21T10:19:41.791Z,1014.7
2019-04-21T10:20:55.784Z,1014.8
2019-04-21T10:22:09.796Z,1014.7
2019-04-21T10:23:23.789Z,1014.7
2019-04-21T10:24:37.857Z,1014.7
2019-04-21T10:25:54.336Z,1014.7
2019-04-21T10:27:05.807Z,1014.7
2019-04-21T10:28:19.833Z,1014.6
2019-04-21T10:29:33.836Z,1014.6
2019-04-21T10:30:49.103Z,1014.6
2019-04-21T10:32:01.889Z,1014.6
2019-04-21T10:33:15.829Z,1014.6
2019-04-21T10:34:29.819Z,1014.6
2019-04-21T10:35:43.824Z,1014.6
2019-04-21T10:36:57.857Z,1014.5
2019-04-21T10:38:11.869Z,1014.5
2019-04-21T10:39:25.845Z,1014.5
2019-04-21T10:40:39.861Z,1014.5
2019-04-21T10:41:53.879Z,1014.5
2019-04-21T10:43:07.902Z,1014.5
2019-04-21T10:44:21.935Z,1014.5
2019-04-21T10:45:35.974Z,1014.5
2019-04-21T10:46:49.904Z,1014.4
2019-04-21T10:48:03.935Z,1014.4
2019-04-21T10:49:17.925Z,1014.4
2019-04-21T10:50:31.947Z,1014.3
2019-04-21T10:51:45.961Z,1014.4
2019-04-21T10:53:00.025Z,1014.4
2019-04-21T10:54:14.058Z,1014.4
2019-04-21T10:55:27.984Z,1014.3
2019-04-21T10:56:42.010Z,1014.2
2019-04-21T10:57:56.014Z,1014.2
2019-04-21T10:59:10.017Z,1014.2
2019-04-21T11:00:24.116Z,1014.2
2019-04-21T11:01:38.140Z,1014.3
2019-04-21T11:02:52.076Z,1014.2
2019-04-21T11:04:06.040Z,1014.2
2019-04-21T11:06:34.058Z,1014.2
2019-04-21T11:07:50.486Z,1014.2
2019-04-21T11:09:02.112Z,1014.2
2019-04-21T11:10:16.122Z,1014.2
2019-04-21T11:11:30.232Z,1014.1
2019-04-21T11:12:44.204Z,1014.1
2019-04-21T11:13:58.213Z,1014.1
2019-04-21T11:15:12.257Z,1014.1
2019-04-21T11:16:26.262Z,1014.1
2019-04-21T11:17:40.216Z,1014
2019-04-21T11:18:54.397Z,1014
2019-04-21T11:20:08.325Z,1014
2019-04-21T11:21:22.439Z,1014
2019-04-21T11:22:36.324Z,1014
2019-04-21T11:23:50.373Z,1014
2019-04-21T11:25:04.323Z,1013.9
2019-04-21T11:26:18.341Z,1013.9
2019-04-21T11:27:32.363Z,1013.9
2019-04-21T11:28:46.388Z,1013.9
2019-04-21T11:30:00.452Z,1013.9
2019-04-21T11:31:14.411Z,1013.8
2019-04-21T11:32:28.515Z,1013.9
2019-04-21T11:33:42.488Z,1013.9
2019-04-21T11:34:56.475Z,1013.9
2019-04-21T11:36:14.863Z,1013.9
2019-04-21T11:37:24.585Z,1013.8
2019-04-21T11:38:38.554Z,1013.8
2019-04-21T11:39:52.577Z,1013.8
2019-04-21T11:41:06.684Z,1013.8
2019-04-21T11:42:20.665Z,1013.8
2019-04-21T11:43:34.661Z,1013.8
2019-04-21T11:44:48.690Z,1013.7
2019-04-21T11:46:02.699Z,1013.7
2019-04-21T11:47:16.722Z,1013.8
2019-04-21T11:48:30.815Z,1013.8
2019-04-21T11:49:44.829Z,1013.8
2019-04-21T11:51:04.265Z,1013.8
2019-04-21T11:52:12.819Z,1013.8
2019-04-21T11:53:26.910Z,1013.7
2019-04-21T11:54:40.946Z,1013.8
2019-04-21T11:55:57.729Z,1013.7
2019-04-21T11:57:08.920Z,1013.6
2019-04-21T11:58:22.915Z,1013.7
2019-04-21T11:59:36.931Z,1013.7
2019-04-21T12:00:50.989Z,1013.6
2019-04-21T12:02:04.999Z,1013.6
2019-04-21T12:03:19.037Z,1013.6
2019-04-21T12:04:33.070Z,1013.6
2019-04-21T12:07:01.185Z,1013.6
2019-04-21T12:09:29.153Z,1013.6
2019-04-21T12:10:43.239Z,1013.5
2019-04-21T12:11:57.293Z,1013.6
2019-04-21T12:13:11.248Z,1013.5
2019-04-21T12:14:25.401Z,1013.5
2019-04-21T12:15:39.331Z,1013.4
2019-04-21T12:16:53.420Z,1013.4
2019-04-21T12:18:07.407Z,1013.3
2019-04-21T12:19:21.493Z,1013.4
2019-04-21T12:20:35.606Z,1013.3
2019-04-21T12:21:49.471Z,1013.3
2019-04-21T12:23:03.605Z,1013.3
2019-04-21T12:24:17.516Z,1013.3
2019-04-21T12:25:31.510Z,1013.3
2019-04-21T12:26:45.557Z,1013.3
2019-04-21T12:27:59.573Z,1013.2
2019-04-21T12:29:13.668Z,1013.2
2019-04-21T12:30:27.620Z,1013.2
2019-04-21T12:31:41.635Z,1013.2
2019-04-21T12:32:55.704Z,1013.1
2019-04-21T12:34:09.688Z,1013.1
2019-04-21T12:35:23.745Z,1013.1
2019-04-21T12:36:37.788Z,1013.1
2019-04-21T12:37:51.869Z,1013.2
2019-04-21T12:39:05.859Z,1013.1
2019-04-21T12:40:19.870Z,1013.1
2019-04-21T12:41:33.868Z,1013
2019-04-21T12:42:47.904Z,1013
2019-04-21T12:44:01.932Z,1012.9
2019-04-21T12:45:16.000Z,1013
2019-04-21T12:46:29.999Z,1013
2019-04-21T12:47:44.017Z,1013
2019-04-21T12:48:58.038Z,1012.9
2019-04-21T12:50:12.145Z,1012.9
2019-04-21T12:51:26.118Z,1012.9
2019-04-21T12:52:40.217Z,1012.9
2019-04-21T12:53:54.162Z,1012.9
2019-04-21T12:55:08.198Z,1012.9
2019-04-21T12:56:22.600Z,1012.8
2019-04-21T12:57:36.365Z,1012.8
2019-04-21T12:58:50.409Z,1012.8
2019-04-21T13:01:18.420Z,1012.7
2019-04-21T13:02:32.427Z,1012.8
2019-04-21T13:03:46.421Z,1012.7
2019-04-21T13:05:00.511Z,1012.7
2019-04-21T13:06:14.609Z,1012.6
2019-04-21T13:07:28.637Z,1012.7
2019-04-21T13:09:56.592Z,1012.6
2019-04-21T13:11:10.689Z,1012.6
2019-04-21T13:12:24.678Z,1012.5
2019-04-21T13:13:38.738Z,1012.5
2019-04-21T13:14:52.825Z,1012.5
2019-04-21T13:16:06.832Z,1012.5
2019-04-21T13:17:20.820Z,1012.5
2019-04-21T13:18:34.851Z,1012.4
2019-04-21T13:19:48.907Z,1012.4
2019-04-21T13:21:03.097Z,1012.3
2019-04-21T13:22:16.967Z,1012.4
2019-04-21T13:23:31.008Z,1012.3
2019-04-21T13:24:45.039Z,1012.3
2019-04-21T13:25:59.216Z,1012.3
2019-04-21T13:27:13.109Z,1012.3
2019-04-21T13:28:27.169Z,1012.3
2019-04-21T13:29:41.217Z,1012.2
2019-04-21T13:30:55.231Z,1012.2
2019-04-21T13:32:09.275Z,1012.2
2019-04-21T13:33:23.335Z,1012.1
2019-04-21T13:34:37.348Z,1012.1
2019-04-21T13:35:51.410Z,1012.2
2019-04-21T13:37:05.577Z,1012.1
2019-04-21T13:38:19.465Z,1012.1
2019-04-21T13:39:33.574Z,1012
2019-04-21T13:40:47.531Z,1012
2019-04-21T13:42:01.565Z,1012.1
2019-04-21T13:43:15.604Z,1012
2019-04-21T13:44:29.731Z,1012
2019-04-21T13:45:43.656Z,1011.9
2019-04-21T13:46:57.693Z,1012
2019-04-21T13:48:11.845Z,1011.9
2019-04-21T13:49:25.919Z,1011.9
2019-04-21T13:50:39.856Z,1011.8
2019-04-21T13:51:53.873Z,1011.8
2019-04-21T13:53:07.823Z,1011.8
2019-04-21T13:54:21.865Z,1011.8
2019-04-21T13:55:35.880Z,1011.7
2019-04-21T13:56:50.066Z,1011.8
2019-04-21T13:58:03.954Z,1011.7
2019-04-21T13:59:18.044Z,1011.7
2019-04-21T14:00:31.991Z,1011.6
2019-04-21T14:01:46.016Z,1011.7
2019-04-21T14:03:00.072Z,1011.6
2019-04-21T14:04:14.099Z,1011.6
2019-04-21T14:05:28.184Z,1011.5
2019-04-21T14:06:42.163Z,1011.5
2019-04-21T14:07:56.212Z,1011.5
2019-04-21T14:09:16.253Z,1011.6
2019-04-21T14:10:24.270Z,1011.5
2019-04-21T14:11:38.300Z,1011.5
2019-04-21T14:12:52.341Z,1011.4
2019-04-21T14:14:06.470Z,1011.4
2019-04-21T14:15:20.446Z,1011.4
2019-04-21T14:16:34.576Z,1011.3
2019-04-21T14:17:48.462Z,1011.3
2019-04-21T14:19:02.491Z,1011.3
2019-04-21T14:20:16.525Z,1011.3
2019-04-21T14:21:31.397Z,1011.2
2019-04-21T14:22:44.661Z,1011.2
2019-04-21T14:23:58.777Z,1011.1
2019-04-21T14:25:12.698Z,1011.1
2019-04-21T14:26:26.746Z,1011.1
2019-04-21T14:27:40.826Z,1011.1
2019-04-21T14:30:08.885Z,1011
2019-04-21T14:31:22.888Z,1011
2019-04-21T14:32:36.929Z,1011
2019-04-21T14:33:50.965Z,1011
2019-04-21T14:35:05.061Z,1011
2019-04-21T14:36:19.027Z,1010.9
2019-04-21T14:37:33.249Z,1010.9
2019-04-21T14:38:47.137Z,1010.9
2019-04-21T14:40:01.150Z,1010.9
2019-04-21T14:41:15.179Z,1010.8
2019-04-21T14:43:43.383Z,1010.8
2019-04-21T14:44:57.546Z,1010.8
2019-04-21T14:46:11.344Z,1010.7
2019-04-21T14:47:25.374Z,1010.8
2019-04-21T14:48:39.581Z,1010.8
2019-04-21T14:49:53.534Z,1010.7
2019-04-21T14:51:07.632Z,1010.7
2019-04-21T14:52:21.685Z,1010.7
2019-04-21T14:53:35.585Z,1010.7
2019-04-21T14:54:49.662Z,1010.6
2019-04-21T14:56:03.679Z,1010.7
2019-04-21T14:57:17.747Z,1010.6
2019-04-21T14:58:31.818Z,1010.6
2019-04-21T14:59:45.841Z,1010.6
2019-04-21T15:00:59.870Z,1010.6
2019-04-21T15:02:13.919Z,1010.7
2019-04-21T15:03:28.640Z,1010.6
2019-04-21T15:04:42.055Z,1010.6
2019-04-21T15:05:56.095Z,1010.6
2019-04-21T15:07:10.150Z,1010.5
2019-04-21T15:08:24.187Z,1010.5
2019-04-21T15:09:38.210Z,1010.6
2019-04-21T15:10:52.252Z,1010.6
2019-04-21T15:12:06.313Z,1010.5
2019-04-21T15:13:20.443Z,1010.5
2019-04-21T15:14:34.373Z,1010.6
2019-04-21T15:15:48.428Z,1010.5
2019-04-21T15:17:02.572Z,1010.6
2019-04-21T15:18:16.538Z,1010.5
2019-04-21T15:19:30.588Z,1010.5
2019-04-21T15:21:58.746Z,1010.5
2019-04-21T15:23:12.706Z,1010.5
2019-04-21T15:24:26.753Z,1010.4
2019-04-21T15:25:42.019Z,1010.4
2019-04-21T15:26:54.861Z,1010.4
2019-04-21T15:28:08.925Z,1010.4
2019-04-21T15:29:22.954Z,1010.3
2019-04-21T15:30:37.072Z,1010.3
2019-04-21T15:31:51.117Z,1010.2
2019-04-21T15:33:05.233Z,1010.2
2019-04-21T15:34:19.299Z,1010.3
2019-04-21T15:35:33.240Z,1010.2
2019-04-21T15:36:47.917Z,1010.2
2019-04-21T15:38:01.363Z,1010.2
2019-04-21T15:39:15.461Z,1010.1
2019-04-21T15:40:29.494Z,1010.1
2019-04-21T15:41:43.542Z,1010.1
2019-04-21T15:42:57.594Z,1010.1
2019-04-21T15:44:11.637Z,1010
2019-04-21T15:45:25.730Z,1010
2019-04-21T15:46:39.777Z,1010.1